createdAt,value
2022-10-13T00:00:11.608Z,5.07
2022-10-13T00:02:47.024Z,7.30
2022-10-13T00:05:20.116Z,3.97
2022-10-13T00:07:52.878Z,5.20
2022-10-13T00:10:26.391Z,7.23
2022-10-13T00:12:59.252Z,4.80
2022-10-13T00:15:32.196Z,5.33
2022-10-13T00:18:05.013Z,4.93
2022-10-13T00:20:42.689Z,4.60
2022-10-13T00:23:16.361Z,5.97
2022-10-13T00:25:50.162Z,5.70
2022-10-13T00:28:22.976Z,5.27
2022-10-13T00:30:55.891Z,7.50
2022-10-13T00:33:28.868Z,7.83
2022-10-13T00:36:01.647Z,6.23
2022-10-13T00:38:34.580Z,5.70
2022-10-13T00:41:07.801Z,7.27
2022-10-13T00:44:03.554Z,5.73
2022-10-13T00:46:37.276Z,6.20
2022-10-13T00:49:13.145Z,6.60
2022-10-13T00:51:50.773Z,7.23
2022-10-13T00:54:24.866Z,6.33
2022-10-13T00:56:57.884Z,10.80
2022-10-13T00:59:31.062Z,12.57
2022-10-13T01:02:04.406Z,8.70
2022-10-13T01:04:42.090Z,11.70
2022-10-13T01:07:19.718Z,11.23
2022-10-13T01:09:52.955Z,9.53
2022-10-13T01:12:49.938Z,8.83
2022-10-13T01:15:48.226Z,6.77
2022-10-13T01:18:46.704Z,4.17
2022-10-13T01:21:45.068Z,5.23
2022-10-13T01:24:42.836Z,6.53
2022-10-13T01:27:33.806Z,8.83
2022-10-13T01:30:21.693Z,14.90
2022-10-13T01:33:19.652Z,15.17
2022-10-13T01:36:11.428Z,13.30
2022-10-13T01:38:51.606Z,18.70
2022-10-13T01:41:43.976Z,14.07
2022-10-13T01:44:40.067Z,9.70
2022-10-13T01:47:15.969Z,13.20
2022-10-13T01:49:52.102Z,12.83
2022-10-13T01:52:30.973Z,14.20
2022-10-13T01:55:11.084Z,8.40
2022-10-13T01:57:45.901Z,8.90
2022-10-13T02:00:21.204Z,11.83
2022-10-13T02:03:12.140Z,14.47
2022-10-13T02:06:04.317Z,13.97
2022-10-13T02:08:45.997Z,16.38
2022-10-13T02:11:21.408Z,15.57
2022-10-13T02:14:05.049Z,18.00
2022-10-13T02:16:41.777Z,15.20
2022-10-13T02:19:17.185Z,22.13
2022-10-13T02:21:51.916Z,16.63
2022-10-13T02:24:24.980Z,14.23
2022-10-13T02:26:57.872Z,15.30
2022-10-13T02:29:30.753Z,16.67
2022-10-13T02:32:03.557Z,17.13
2022-10-13T02:34:36.365Z,18.83
2022-10-13T02:37:09.339Z,16.07
2022-10-13T02:39:42.215Z,15.67
2022-10-13T02:42:17.881Z,13.43
2022-10-13T02:44:51.136Z,13.77
2022-10-13T02:47:24.020Z,14.53
2022-10-13T02:49:57.736Z,13.57
2022-10-13T02:52:30.821Z,10.77
2022-10-13T02:55:04.371Z,11.40
2022-10-13T02:57:37.154Z,15.77
2022-10-13T03:00:10.572Z,11.53
2022-10-13T03:02:43.410Z,10.57
2022-10-13T03:05:17.053Z,12.83
2022-10-13T03:07:49.929Z,12.57
2022-10-13T03:10:22.769Z,10.23
2022-10-13T03:12:58.523Z,12.10
2022-10-13T03:15:31.244Z,18.17
2022-10-13T03:18:05.243Z,12.43
2022-10-13T03:20:38.099Z,14.00
2022-10-13T03:23:11.288Z,13.97
2022-10-13T03:25:44.125Z,14.03
2022-10-13T03:28:17.134Z,13.53
2022-10-13T03:31:04.706Z,16.57
2022-10-13T03:33:37.511Z,17.20
2022-10-13T03:36:11.944Z,17.90
2022-10-13T03:38:46.077Z,15.57
2022-10-13T03:41:19.164Z,13.53
2022-10-13T03:43:56.013Z,18.27
2022-10-13T03:46:30.535Z,19.87
2022-10-13T03:49:04.190Z,23.83
2022-10-13T03:51:36.945Z,23.63
2022-10-13T03:54:12.665Z,23.67
2022-10-13T03:56:46.508Z,25.50
2022-10-13T03:59:19.385Z,21.67
2022-10-13T04:01:52.224Z,23.00
2022-10-13T04:04:25.009Z,23.80
2022-10-13T04:07:02.047Z,26.73
2022-10-13T04:09:35.081Z,24.20
2022-10-13T04:12:07.946Z,17.00
2022-10-13T04:14:40.733Z,18.23
2022-10-13T04:17:14.008Z,17.60
2022-10-13T04:19:46.868Z,18.03
2022-10-13T04:22:19.849Z,17.60
2022-10-13T04:24:53.932Z,18.33
2022-10-13T04:27:27.000Z,20.10
2022-10-13T04:30:00.031Z,22.75
2022-10-13T04:32:33.714Z,16.60
2022-10-13T04:35:13.042Z,23.87
2022-10-13T04:37:54.147Z,19.02
2022-10-13T04:40:27.712Z,24.33
2022-10-13T04:43:01.869Z,19.63
2022-10-13T04:45:42.433Z,23.13
2022-10-13T04:48:18.259Z,25.20
2022-10-13T04:51:03.101Z,24.13
2022-10-13T04:53:36.871Z,22.10
2022-10-13T04:56:17.596Z,24.43
2022-10-13T04:58:50.899Z,25.70
2022-10-13T05:01:24.861Z,22.20
2022-10-13T05:04:00.038Z,24.30
2022-10-13T05:06:35.751Z,27.00
2022-10-13T05:09:13.944Z,21.93
2022-10-13T05:11:46.881Z,24.23
2022-10-13T05:14:19.777Z,21.37
2022-10-13T05:16:52.498Z,21.30
2022-10-13T05:19:25.386Z,20.93
2022-10-13T05:21:58.366Z,23.23
2022-10-13T05:24:36.381Z,20.17
2022-10-13T05:27:11.362Z,21.90
2022-10-13T05:29:44.084Z,21.03
2022-10-13T05:32:17.102Z,24.47
2022-10-13T05:34:50.393Z,22.33
2022-10-13T05:37:23.181Z,19.23
2022-10-13T05:39:56.034Z,24.73
2022-10-13T05:42:30.004Z,27.23
2022-10-13T05:45:03.405Z,20.73
2022-10-13T05:47:36.465Z,19.80
2022-10-13T05:50:09.458Z,23.40
2022-10-13T05:52:45.051Z,19.97
2022-10-13T05:55:19.117Z,25.27
2022-10-13T05:57:52.757Z,25.77
2022-10-13T06:00:25.625Z,23.73
2022-10-13T06:03:14.226Z,27.50
2022-10-13T06:05:49.473Z,21.97
2022-10-13T06:08:22.158Z,24.13
2022-10-13T06:10:57.847Z,22.53
2022-10-13T06:13:31.182Z,26.07
2022-10-13T06:16:04.283Z,19.17
2022-10-13T06:18:37.057Z,22.43
2022-10-13T06:21:09.863Z,21.07
2022-10-13T06:23:42.537Z,20.17
2022-10-13T06:26:15.213Z,22.93
2022-10-13T06:28:51.088Z,23.47
2022-10-13T06:31:28.058Z,20.43
2022-10-13T06:34:00.755Z,20.23
2022-10-13T06:36:33.550Z,23.93
2022-10-13T06:39:06.216Z,24.03
2022-10-13T06:41:39.061Z,24.70
2022-10-13T06:44:11.864Z,21.73
2022-10-13T06:46:44.680Z,26.00
2022-10-13T06:49:17.849Z,22.87
2022-10-13T06:51:50.840Z,26.07
2022-10-13T06:54:23.584Z,22.60
2022-10-13T06:56:56.503Z,26.87
2022-10-13T06:59:29.289Z,24.35
2022-10-13T07:02:01.998Z,22.33
2022-10-13T07:04:34.764Z,20.87
2022-10-13T07:07:07.553Z,20.73
2022-10-13T07:09:40.788Z,18.97
2022-10-13T07:12:14.378Z,21.73
2022-10-13T07:14:47.601Z,22.37
2022-10-13T07:17:20.743Z,26.23
2022-10-13T07:19:57.745Z,26.77
2022-10-13T07:22:31.884Z,25.17
2022-10-13T07:25:04.914Z,26.17
2022-10-13T07:27:40.131Z,27.03
2022-10-13T07:30:13.077Z,23.00
2022-10-13T07:32:46.393Z,23.10
2022-10-13T07:35:19.777Z,22.10
2022-10-13T07:37:53.971Z,25.70
2022-10-13T07:40:26.791Z,22.70
2022-10-13T07:42:59.954Z,24.00
2022-10-13T07:45:32.672Z,23.07
2022-10-13T07:48:05.529Z,26.65
2022-10-13T07:50:38.236Z,24.30
2022-10-13T07:53:11.022Z,22.50
2022-10-13T07:55:43.735Z,25.13
2022-10-13T07:58:16.503Z,27.27
2022-10-13T08:00:56.846Z,26.27
2022-10-13T08:03:32.590Z,24.80
2022-10-13T08:06:07.143Z,28.63
2022-10-13T08:08:40.697Z,25.23
2022-10-13T08:11:17.974Z,22.75
2022-10-13T08:13:52.025Z,27.27
2022-10-13T08:16:28.473Z,25.80
2022-10-13T08:19:01.444Z,26.00
2022-10-13T08:24:28.779Z,27.10
2022-10-13T08:27:01.918Z,25.67
2022-10-13T08:29:35.035Z,29.27
2022-10-13T08:32:07.931Z,26.73
2022-10-13T08:34:40.896Z,23.13
2022-10-13T08:37:14.802Z,26.33
2022-10-13T08:39:47.957Z,23.70
2022-10-13T08:42:22.391Z,27.97
2022-10-13T08:45:28.771Z,28.63
2022-10-13T08:48:01.229Z,18.40
2022-10-13T08:50:35.902Z,25.73
2022-10-13T08:53:13.937Z,24.10
2022-10-13T08:55:53.277Z,21.40
2022-10-13T08:58:31.480Z,28.35
2022-10-13T09:01:07.653Z,26.33
2022-10-13T09:03:49.853Z,24.97
2022-10-13T09:06:28.773Z,21.27
2022-10-13T09:09:03.726Z,20.73
2022-10-13T09:11:40.545Z,20.10
2022-10-13T09:14:24.896Z,21.97
2022-10-13T09:20:06.943Z,22.87
2022-10-13T09:22:40.909Z,21.70
2022-10-13T09:25:22.097Z,22.37
2022-10-13T09:27:55.151Z,23.03
2022-10-13T09:30:51.770Z,21.77
2022-10-13T09:33:26.915Z,21.53
2022-10-13T09:36:00.380Z,19.27
2022-10-13T09:38:35.167Z,25.93
2022-10-13T09:41:19.731Z,25.57
2022-10-13T09:43:56.374Z,29.73
2022-10-13T09:46:46.543Z,28.27
2022-10-13T09:49:30.471Z,29.73
2022-10-13T09:52:12.187Z,29.67
2022-10-13T09:54:52.711Z,32.72
2022-10-13T09:57:40.346Z,26.93
2022-10-13T10:00:26.089Z,21.17
2022-10-13T10:03:11.412Z,21.30
2022-10-13T10:05:59.717Z,21.47
2022-10-13T10:09:02.860Z,28.07
2022-10-13T10:11:50.148Z,17.10
2022-10-13T10:14:29.581Z,18.20
2022-10-13T10:17:50.691Z,19.47
2022-10-13T10:20:57.527Z,14.57
2022-10-13T10:23:52.698Z,16.40
2022-10-13T10:26:43.594Z,18.60
2022-10-13T10:29:24.274Z,18.50
2022-10-13T10:32:06.604Z,18.13
2022-10-13T10:34:44.254Z,15.77
2022-10-13T10:37:51.002Z,15.47
2022-10-13T10:40:30.765Z,15.37
2022-10-13T10:43:17.593Z,19.13
2022-10-13T10:45:53.071Z,18.30
2022-10-13T10:48:38.641Z,16.87
2022-10-13T10:51:14.382Z,16.30
2022-10-13T10:54:24.110Z,33.03
2022-10-13T10:57:19.648Z,18.43
2022-10-13T10:59:59.832Z,21.03
2022-10-13T11:02:37.395Z,20.50
2022-10-13T11:05:10.474Z,18.07
2022-10-13T11:07:43.613Z,13.57
2022-10-13T11:10:21.247Z,12.40
2022-10-13T11:12:54.791Z,17.67
2022-10-13T11:15:42.707Z,18.07
2022-10-13T11:18:52.981Z,17.43
2022-10-13T11:21:26.679Z,16.27
2022-10-13T11:24:02.237Z,18.10
2022-10-13T11:26:43.827Z,17.20
2022-10-13T11:29:19.923Z,16.13
2022-10-13T11:31:54.617Z,16.13
2022-10-13T11:34:33.418Z,16.65
2022-10-13T11:37:17.147Z,18.90
2022-10-13T11:40:01.909Z,14.97
2022-10-13T11:42:58.467Z,16.37
2022-10-13T11:45:41.811Z,16.67
2022-10-13T11:48:14.948Z,15.50
2022-10-13T11:50:48.385Z,14.90
2022-10-13T11:53:21.523Z,16.10
2022-10-13T11:55:57.344Z,15.80
2022-10-13T11:58:34.154Z,15.13
2022-10-13T12:01:12.943Z,12.17
2022-10-13T12:03:46.730Z,13.73
2022-10-13T12:06:32.088Z,16.03
2022-10-13T12:09:07.971Z,18.93
2022-10-13T12:11:40.896Z,11.87
2022-10-13T12:14:21.518Z,13.97
2022-10-13T12:16:59.000Z,12.33
2022-10-13T12:19:33.293Z,13.40
2022-10-13T12:22:12.593Z,14.33
2022-10-13T12:24:58.674Z,9.40
2022-10-13T12:27:33.020Z,11.07
2022-10-13T12:30:20.242Z,9.83
2022-10-13T12:32:55.149Z,11.17
2022-10-13T12:35:28.487Z,7.53
2022-10-13T12:38:03.082Z,9.07
2022-10-13T12:40:37.680Z,8.33
2022-10-13T12:43:12.465Z,8.07
2022-10-13T12:45:45.641Z,10.07
2022-10-13T12:48:35.214Z,8.73
2022-10-13T12:51:10.061Z,10.20
2022-10-13T12:53:44.445Z,9.47
2022-10-13T12:56:28.503Z,7.70
2022-10-13T12:59:02.010Z,9.37
2022-10-13T13:01:35.714Z,8.83
2022-10-13T13:04:19.886Z,7.47
2022-10-13T13:07:00.882Z,7.90
2022-10-13T13:09:34.753Z,10.67
2022-10-13T13:12:11.393Z,9.50
2022-10-13T13:14:48.324Z,9.33
2022-10-13T13:17:45.281Z,10.33
2022-10-13T13:20:21.604Z,8.97
2022-10-13T13:22:54.949Z,9.30
2022-10-13T13:25:28.919Z,9.60
2022-10-13T13:28:04.625Z,9.73
2022-10-13T13:30:37.611Z,7.40
2022-10-13T13:35:44.516Z,8.70
2022-10-13T13:38:17.474Z,7.93
2022-10-13T13:40:50.394Z,9.73
2022-10-13T13:43:23.377Z,9.47
2022-10-13T13:45:56.490Z,8.57
2022-10-13T13:48:29.442Z,8.70
2022-10-13T13:51:03.887Z,9.80
2022-10-13T13:53:37.245Z,12.03
2022-10-13T13:56:20.400Z,9.37
2022-10-13T13:58:53.343Z,9.97
2022-10-13T14:01:26.580Z,10.27
2022-10-13T14:03:59.843Z,10.03
2022-10-13T14:06:33.005Z,12.03
2022-10-13T14:09:06.230Z,16.10
2022-10-13T14:11:39.203Z,12.18
2022-10-13T14:14:12.138Z,10.37
2022-10-13T14:16:45.067Z,11.53
2022-10-13T14:19:18.095Z,11.20
2022-10-13T14:21:51.060Z,12.48
2022-10-13T14:24:23.978Z,9.07
2022-10-13T14:26:56.968Z,12.20
2022-10-13T14:29:29.981Z,13.63
2022-10-13T14:32:03.245Z,12.80
2022-10-13T14:34:36.181Z,9.33
2022-10-13T14:37:09.124Z,10.53
2022-10-13T14:39:42.104Z,11.40
2022-10-13T14:42:15.124Z,9.30
2022-10-13T14:44:48.178Z,11.43
2022-10-13T14:47:21.397Z,12.03
2022-10-13T14:49:54.514Z,10.30
2022-10-13T14:52:27.435Z,8.00
2022-10-13T14:55:00.445Z,8.23
2022-10-13T14:57:33.482Z,8.30
2022-10-13T15:00:06.762Z,9.10
2022-10-13T15:02:39.845Z,8.07
2022-10-13T15:11:08.998Z,10.83
2022-10-13T15:13:42.003Z,10.20
2022-10-13T15:16:33.572Z,11.23
2022-10-13T15:19:06.471Z,10.77
2022-10-13T15:21:40.403Z,8.60
2022-10-13T15:24:13.342Z,7.83
2022-10-13T15:26:48.407Z,7.23
2022-10-13T15:29:47.282Z,9.60
2022-10-13T15:32:26.423Z,7.83
2022-10-13T15:35:00.806Z,8.60
2022-10-13T15:37:36.263Z,9.83
2022-10-13T15:40:09.630Z,6.57
2022-10-13T15:42:42.701Z,7.87
2022-10-13T15:45:46.467Z,8.37
2022-10-13T15:48:19.622Z,6.80
2022-10-13T15:50:52.845Z,9.37
2022-10-13T15:53:26.040Z,7.53
2022-10-13T15:56:02.368Z,8.40
2022-10-13T15:58:35.949Z,7.97
2022-10-13T16:01:09.784Z,6.13
2022-10-13T16:03:43.141Z,6.77
2022-10-13T16:06:16.336Z,7.00
2022-10-13T16:08:50.164Z,9.83
2022-10-13T16:11:23.962Z,9.33
2022-10-13T16:13:57.398Z,11.07
2022-10-13T16:16:31.223Z,6.13
2022-10-13T16:19:04.652Z,5.73
2022-10-13T16:21:37.639Z,10.43
2022-10-13T16:24:11.087Z,6.70
2022-10-13T16:26:44.398Z,10.83
2022-10-13T16:29:17.888Z,6.90
2022-10-13T16:31:51.681Z,6.20
2022-10-13T16:34:24.995Z,5.83
2022-10-13T16:36:58.858Z,6.07
2022-10-13T16:39:32.942Z,6.30
2022-10-13T16:42:06.475Z,7.80
2022-10-13T16:44:39.825Z,5.80
2022-10-13T16:47:18.027Z,6.67
2022-10-13T16:49:52.197Z,5.50
2022-10-13T16:52:25.896Z,6.97
2022-10-13T16:54:59.996Z,5.17
2022-10-13T16:57:34.135Z,7.03
2022-10-13T17:00:08.879Z,6.03
2022-10-13T17:02:42.787Z,4.27
2022-10-13T17:05:16.047Z,5.78
2022-10-13T17:07:49.024Z,5.23
2022-10-13T17:10:22.473Z,6.30
2022-10-13T17:12:56.191Z,4.73
2022-10-13T17:15:30.495Z,4.97
2022-10-13T17:18:04.470Z,5.77
2022-10-13T17:20:37.719Z,4.77
2022-10-13T17:23:11.056Z,4.13
2022-10-13T17:25:44.258Z,4.93
2022-10-13T17:28:17.861Z,3.33
2022-10-13T17:31:05.647Z,3.47
2022-10-13T17:33:39.358Z,7.40
2022-10-13T17:36:12.376Z,5.97
2022-10-13T17:38:46.332Z,3.77
2022-10-13T17:41:20.917Z,4.37
2022-10-13T17:43:54.908Z,3.87
2022-10-13T17:46:38.782Z,2.70
2022-10-13T17:49:13.829Z,4.13
2022-10-13T17:51:47.084Z,3.40
2022-10-13T17:54:20.795Z,4.07
2022-10-13T17:56:56.917Z,4.00
2022-10-13T17:59:30.282Z,6.40
2022-10-13T18:02:03.479Z,6.28
2022-10-13T18:04:37.020Z,3.93
2022-10-13T18:07:10.647Z,3.70
2022-10-13T18:09:44.753Z,4.20
2022-10-13T18:12:18.525Z,3.43
2022-10-13T18:14:52.416Z,4.77
2022-10-13T18:17:26.270Z,4.20
2022-10-13T18:19:59.762Z,3.57
2022-10-13T18:22:32.991Z,4.00
2022-10-13T18:25:06.750Z,4.87
2022-10-13T18:27:40.056Z,3.87
2022-10-13T18:30:13.392Z,3.80
2022-10-13T18:32:46.332Z,4.70
2022-10-13T18:35:20.466Z,3.90
2022-10-13T18:37:53.601Z,2.73
2022-10-13T18:40:28.430Z,4.27
2022-10-13T18:43:02.144Z,4.73
2022-10-13T18:45:35.934Z,6.40
2022-10-13T18:48:09.144Z,3.73
2022-10-13T18:50:42.775Z,5.27
2022-10-13T18:53:15.735Z,2.70
2022-10-13T18:55:48.710Z,3.50
2022-10-13T18:58:21.752Z,3.40
2022-10-13T19:00:59.087Z,4.47
2022-10-13T19:03:32.866Z,5.07
2022-10-13T19:06:07.127Z,4.60
2022-10-13T19:08:40.553Z,4.23
2022-10-13T19:11:13.540Z,3.67
2022-10-13T19:13:46.878Z,3.47
2022-10-13T19:16:21.494Z,3.20
2022-10-13T19:18:54.448Z,3.13
2022-10-13T19:21:27.465Z,5.00
2022-10-13T19:24:00.718Z,2.87
2022-10-13T19:26:34.609Z,4.60
2022-10-13T19:29:09.338Z,2.63
2022-10-13T19:31:43.127Z,3.10
2022-10-13T19:34:16.055Z,2.73
2022-10-13T19:36:49.303Z,4.33
2022-10-13T19:39:23.769Z,4.93
2022-10-13T19:41:57.888Z,2.97
2022-10-13T19:44:31.038Z,3.55
2022-10-13T19:47:03.955Z,4.43
2022-10-13T19:49:37.172Z,5.33
2022-10-13T19:52:10.224Z,4.67
2022-10-13T19:54:46.050Z,4.00
2022-10-13T19:57:19.551Z,3.85
2022-10-13T19:59:52.634Z,4.00
2022-10-13T20:20:32.209Z,4.43
2022-10-13T20:23:09.522Z,3.30
2022-10-13T22:14:29.511Z,7.23
2022-10-13T22:17:02.550Z,6.27
2022-10-13T22:19:35.767Z,5.10
